This is the latest recevied weather packets stored in our database for station/object KG7QQL. If no packets are shown the sender has not sent any weather packets the latest 10 day(s).
| Time | Temp. | Humidity | Pressure | Rain* | Wind** | Luminosity | Snow |
|---|---|---|---|---|---|---|---|
| 1777930702 | 25° C | 49% | - | 0 mm | - | - | - |
| 1777930398 | 25.56° C | 50% | - | 0 mm | - | - | - |
| 1777930096 | 24.44° C | 51% | - | 0 mm | - | - | - |
| 1777929792 | 24.44° C | 52% | - | 0 mm | - | - | - |
| 1777929490 | 25° C | 51% | - | 0 mm | - | - | - |
| 1777929185 | 24.44° C | 51% | - | 0 mm | - | - | - |
| 1777928883 | 25° C | 51% | - | 0 mm | - | - | - |
| 1777928580 | 24.44° C | 54% | - | 0 mm | - | - | - |
| 1777928277 | 24.44° C | 53% | - | 0 mm | - | - | - |
| 1777927975 | 23.89° C | 53% | - | 0 mm | - | - | - |
| 1777927673 | 24.44° C | 54% | - | 0 mm | - | - | - |
| 1777927371 | 23.89° C | 54% | - | 0 mm | - | - | - |
| 1777927070 | 24.44° C | 54% | - | 0 mm | - | - | - |
| 1777926766 | 24.44° C | 54% | - | 0 mm | - | - | - |
| 1777926461 | 24.44° C | 52% | - | 0 mm | - | - | - |
| 1777926159 | 23.89° C | 54% | - | 0 mm | - | - | - |
| 1777925856 | 23.33° C | 55% | - | 0 mm | - | - | - |
| 1777925553 | 23.33° C | 54% | - | 0 mm | - | - | - |
| 1777925251 | 23.89° C | 54% | - | 0 mm | - | - | - |
| 1777924946 | 23.89° C | 53% | - | 0 mm | - | - | - |
| 1777924643 | 22.78° C | 57% | - | 0 mm | - | - | - |
| 1777924339 | 22.78° C | 55% | - | 0 mm | - | - | - |
| 1777924036 | 23.33° C | 54% | - | 0 mm | - | - | - |
| 1777923732 | 23.89° C | 51% | - | 0 mm | - | - | - |
| 1777923429 | 24.44° C | 49% | - | 0 mm | - | - | - |
* Rain latest hour (hover to see other rain measurements)
** Current wind speed in m/s (hover to see current wind gust speed)